Time;durP1;ratioP1;P1;durP2;ratioP2;P2;SDS_P1;SDS_P2;PMS_P1;PMS_P2;Temp;Humidity;BMP_temperature;BMP_pressure;BME280_temperature;BME280_humidity;BME280_pressure;Samples;Min_cycle;Max_cycle;Signal;HPM_P1;HPM_P2
2022/08/05 00:01:19;;;;;;;6.97;2.75;;;;;;;;;;4990993;28;20121;-62
2022/08/05 00:03:45;;;;;;;6.35;2.45;;;;;;;;;;4991018;28;20046;-62
2022/08/05 00:06:11;;;;;;;6.53;2.40;;;;;;;;;;4991256;28;20401;-62
2022/08/05 00:08:38;;;;;;;8.70;2.55;;;;;;;;;;4990798;28;20097;-62
2022/08/05 00:11:07;;;;;;;7.03;2.22;;;;;;;;;;4990922;28;20045;-62
2022/08/05 00:13:33;;;;;;;3.92;2.20;;;;;;;;;;4991058;28;20129;-62
2022/08/05 00:15:59;;;;;;;5.43;2.33;;;;;;;;;;4991408;28;20097;-62
2022/08/05 00:18:25;;;;;;;5.68;2.20;;;;;;;;;;4990511;28;20546;-62
2022/08/05 00:20:52;;;;;;;4.15;2.20;;;;;;;;;;4991263;28;20074;-62
2022/08/05 00:23:18;;;;;;;7.10;2.00;;;;;;;;;;4990950;28;20046;-62
2022/08/05 00:25:44;;;;;;;7.00;2.45;;;;;;;;;;4990436;28;20130;-62
2022/08/05 00:28:11;;;;;;;7.18;2.25;;;;;;;;;;4991143;28;20057;-62
2022/08/05 00:30:37;;;;;;;3.90;2.40;;;;;;;;;;4991167;28;20050;-62
2022/08/05 00:33:03;;;;;;;6.38;2.63;;;;;;;;;;4990397;28;20078;-62
2022/08/05 00:35:29;;;;;;;8.48;2.20;;;;;;;;;;4990973;28;20120;-62
2022/08/05 00:37:55;;;;;;;11.80;2.65;;;;;;;;;;4990923;28;20047;-62
2022/08/05 00:40:22;;;;;;;6.25;2.17;;;;;;;;;;4990632;28;20461;-62
2022/08/05 00:42:48;;;;;;;8.13;2.53;;;;;;;;;;4990845;28;20035;-62
2022/08/05 00:45:14;;;;;;;7.28;2.28;;;;;;;;;;4991045;28;20049;-62
2022/08/05 00:47:40;;;;;;;4.78;2.25;;;;;;;;;;4993255;28;20072;-62
2022/08/05 00:50:07;;;;;;;7.32;2.28;;;;;;;;;;4994756;28;20057;-62
2022/08/05 00:52:33;;;;;;;4.47;2.00;;;;;;;;;;4994686;28;20177;-62
2022/08/05 00:54:59;;;;;;;5.43;1.75;;;;;;;;;;4994239;28;20053;-62
2022/08/05 00:57:25;;;;;;;6.60;1.80;;;;;;;;;;4994658;28;20034;-62
2022/08/05 00:59:52;;;;;;;4.47;1.90;;;;;;;;;;4994748;28;20484;-62
2022/08/05 01:02:18;;;;;;;6.00;1.95;;;;;;;;;;4994062;28;20461;-62
2022/08/05 01:04:44;;;;;;;5.03;1.90;;;;;;;;;;4994576;28;20042;-62
2022/08/05 01:07:10;;;;;;;9.32;2.40;;;;;;;;;;4993894;28;20108;-62
2022/08/05 01:09:36;;;;;;;6.55;2.60;;;;;;;;;;4976071;28;20078;-62
2022/08/05 01:12:04;;;;;;;5.18;2.00;;;;;;;;;;4994563;28;20078;-62
2022/08/05 01:14:30;;;;;;;10.35;2.47;;;;;;;;;;4994010;28;20042;-62
2022/08/05 01:17:02;;;;;;;8.48;2.78;;;;;;;;;;4993611;28;20045;-62
2022/08/05 01:19:28;;;;;;;;;;;;;;;;;;4994732;28;20128;-62
2022/08/05 01:21:58;;;;;;;3.47;2.10;;;;;;;;;;4994114;28;20341;-62
2022/08/05 01:24:50;;;;;;;6.88;2.22;;;;;;;;;;4993912;28;20038;-62
2022/08/05 01:27:37;;;;;;;4.28;2.30;;;;;;;;;;4989958;28;20054;-62
2022/08/05 01:30:04;;;;;;;3.53;2.05;;;;;;;;;;4993685;28;20058;-62
2022/08/05 01:32:31;;;;;;;5.32;2.30;;;;;;;;;;4975696;28;20042;-62
2022/08/05 01:34:59;;;;;;;5.93;2.35;;;;;;;;;;4993837;28;20042;-62
2022/08/05 01:37:31;;;;;;;7.45;2.20;;;;;;;;;;4993724;28;20753;-62
2022/08/05 01:39:58;;;;;;;6.07;2.30;;;;;;;;;;4993471;28;20042;-62
2022/08/05 01:42:25;;;;;;;7.90;2.33;;;;;;;;;;4993715;28;20038;-62
2022/08/05 01:44:52;;;;;;;6.03;2.40;;;;;;;;;;4993640;28;20070;-62
2022/08/05 01:47:19;;;;;;;7.75;2.42;;;;;;;;;;4975459;28;20057;-62
2022/08/05 01:49:49;;;;;;;6.05;2.40;;;;;;;;;;4993716;28;20053;-62
2022/08/05 01:52:15;;;;;;;5.50;2.28;;;;;;;;;;4993346;28;20078;-62
2022/08/05 01:54:44;;;;;;;7.93;2.45;;;;;;;;;;4993160;28;20082;-62
2022/08/05 01:57:12;;;;;;;11.02;2.50;;;;;;;;;;4993114;28;20388;-62
2022/08/05 01:59:39;;;;;;;6.40;2.72;;;;;;;;;;4992695;28;20038;-62
2022/08/05 02:02:05;;;;;;;6.80;2.47;;;;;;;;;;4992740;28;20052;-62
2022/08/05 02:04:34;;;;;;;8.00;3.05;;;;;;;;;;4993480;28;20424;-62
2022/08/05 02:07:00;;;;;;;4.82;2.40;;;;;;;;;;4993088;28;20050;-62
2022/08/05 02:09:26;;;;;;;7.95;2.70;;;;;;;;;;4992664;28;20057;-62
2022/08/05 02:12:00;;;;;;;8.68;2.85;;;;;;;;;;4993360;28;20162;-62
2022/08/05 02:14:32;;;;;;;3.78;2.58;;;;;;;;;;4992791;28;20133;-62
2022/08/05 02:17:11;;;;;;;4.82;2.00;;;;;;;;;;4992668;28;20038;-62
2022/08/05 02:19:41;;;;;;;4.38;2.63;;;;;;;;;;4992977;28;20038;-62
2022/08/05 02:22:16;;;;;;;8.77;2.67;;;;;;;;;;4992974;28;20046;-62
2022/08/05 02:24:46;;;;;;;7.10;2.40;;;;;;;;;;4992693;28;20042;-62
2022/08/05 02:27:12;;;;;;;4.95;2.55;;;;;;;;;;4992847;28;20421;-62
2022/08/05 02:29:40;;;;;;;5.78;2.30;;;;;;;;;;4992954;28;20447;-62
2022/08/05 02:32:07;;;;;;;5.22;2.40;;;;;;;;;;4992149;28;20058;-62
2022/08/05 02:34:34;;;;;;;6.93;2.85;;;;;;;;;;4974965;28;20085;-62
2022/08/05 02:37:02;;;;;;;5.13;2.83;;;;;;;;;;4992765;28;20042;-62
2022/08/05 02:39:33;;;;;;;5.43;2.53;;;;;;;;;;4992175;28;20073;-62
2022/08/05 02:42:00;;;;;;;3.95;2.33;;;;;;;;;;4992637;28;20089;-62
2022/08/05 02:44:27;;;;;;;6.22;2.40;;;;;;;;;;4992561;28;20129;-62
2022/08/05 02:46:54;;;;;;;4.40;2.13;;;;;;;;;;4991826;28;20042;-62
2022/08/05 02:49:20;;;;;;;7.00;2.53;;;;;;;;;;4992208;28;20061;-62
2022/08/05 02:51:47;;;;;;;7.07;2.75;;;;;;;;;;4992494;28;20374;-62
2022/08/05 02:54:13;;;;;;;7.53;2.80;;;;;;;;;;4992037;28;20078;-62
2022/08/05 02:56:40;;;;;;;2.90;2.65;;;;;;;;;;4992099;28;20038;-62
2022/08/05 02:59:06;;;;;;;7.63;3.17;;;;;;;;;;4992344;28;20398;-62
2022/08/05 03:01:33;;;;;;;6.47;3.10;;;;;;;;;;4991871;28;20043;-62
2022/08/05 03:04:02;;;;;;;8.25;2.90;;;;;;;;;;4992053;28;20193;-62
2022/08/05 03:06:28;;;;;;;6.47;2.92;;;;;;;;;;4992122;28;20045;-62
2022/08/05 03:08:54;;;;;;;6.50;3.00;;;;;;;;;;4991296;28;20049;-62
2022/08/05 03:11:24;;;;;;;6.05;3.17;;;;;;;;;;4992304;28;20034;-62
2022/08/05 03:13:51;;;;;;;8.38;3.22;;;;;;;;;;4992054;28;20043;-62
2022/08/05 03:16:17;;;;;;;5.80;3.15;;;;;;;;;;4991656;28;20049;-62
2022/08/05 03:18:44;;;;;;;5.32;2.58;;;;;;;;;;4991862;28;20046;-62
2022/08/05 03:21:10;;;;;;;6.22;3.08;;;;;;;;;;4992012;28;20038;-62
2022/08/05 03:23:37;;;;;;;9.02;3.42;;;;;;;;;;4991459;28;20117;-62
2022/08/05 03:26:04;;;;;;;5.03;2.85;;;;;;;;;;4991527;28;20106;-62
2022/08/05 03:28:31;;;;;;;9.00;3.30;;;;;;;;;;4991491;28;20050;-62
2022/08/05 03:30:58;;;;;;;9.57;3.65;;;;;;;;;;4991453;28;20050;-62
2022/08/05 03:33:24;;;;;;;8.50;4.07;;;;;;;;;;4974043;28;20053;-62
2022/08/05 03:35:50;;;;;;;6.95;3.38;;;;;;;;;;4991714;28;20097;-62
2022/08/05 03:38:17;;;;;;;6.97;3.53;;;;;;;;;;4991211;28;20038;-62
2022/08/05 03:40:43;;;;;;;8.30;3.53;;;;;;;;;;4991755;28;20089;-62
2022/08/05 03:43:10;;;;;;;8.38;4.10;;;;;;;;;;4991503;28;20042;-62
2022/08/05 03:45:36;;;;;;;6.78;4.20;;;;;;;;;;4991030;28;20049;-62
2022/08/05 03:48:02;;;;;;;8.07;4.22;;;;;;;;;;4991308;28;20149;-62
2022/08/05 03:50:33;;;;;;;8.60;4.30;;;;;;;;;;4991543;28;20456;-62
2022/08/05 03:53:07;;;;;;;4.70;3.78;;;;;;;;;;4991117;28;20046;-62
2022/08/05 03:55:36;;;;;;;8.82;4.25;;;;;;;;;;4991324;28;20088;-62
2022/08/05 03:58:04;;;;;;;8.50;3.85;;;;;;;;;;4973986;28;20130;-62
2022/08/05 04:00:31;;;;;;;8.23;4.00;;;;;;;;;;4991186;28;20038;-62
2022/08/05 04:03:02;;;;;;;7.07;4.28;;;;;;;;;;4991185;28;20046;-62
2022/08/05 04:05:32;;;;;;;15.38;4.50;;;;;;;;;;4991342;28;20050;-62
2022/08/05 04:07:59;;;;;;;12.43;4.07;;;;;;;;;;4990989;28;20494;-62
2022/08/05 04:10:26;;;;;;;7.45;4.13;;;;;;;;;;4973686;28;20072;-62
2022/08/05 04:12:52;;;;;;;7.07;4.20;;;;;;;;;;4991426;28;20035;-62
2022/08/05 04:15:18;;;;;;;8.10;4.13;;;;;;;;;;4990749;28;20041;-62
2022/08/05 04:17:45;;;;;;;7.47;4.53;;;;;;;;;;4991316;28;20508;-62
2022/08/05 04:20:21;;;;;;;9.25;4.45;;;;;;;;;;4973954;28;20100;-62
2022/08/05 04:22:47;;;;;;;9.60;5.05;;;;;;;;;;4993931;28;20121;-62
2022/08/05 04:25:13;;;;;;;10.98;4.30;;;;;;;;;;4995166;28;20401;-62
2022/08/05 04:27:39;;;;;;;7.82;4.40;;;;;;;;;;4994843;28;20166;-62
2022/08/05 04:30:06;;;;;;;8.95;4.35;;;;;;;;;;4995012;28;20038;-62
2022/08/05 04:32:32;;;;;;;6.85;4.60;;;;;;;;;;4994925;28;20492;-62
2022/08/05 04:34:58;;;;;;;7.70;4.13;;;;;;;;;;4994613;28;20050;-62
2022/08/05 04:37:24;;;;;;;5.63;4.60;;;;;;;;;;4994565;28;20093;-62
2022/08/05 04:39:50;;;;;;;8.27;5.15;;;;;;;;;;4995025;28;20038;-62
2022/08/05 04:42:16;;;;;;;6.38;5.28;;;;;;;;;;4977298;28;20058;-62
2022/08/05 04:44:42;;;;;;;9.52;4.78;;;;;;;;;;4994617;28;20093;-62
2022/08/05 04:47:08;;;;;;;8.85;4.60;;;;;;;;;;4994547;28;20050;-62
2022/08/05 04:49:34;;;;;;;8.25;4.68;;;;;;;;;;4994838;28;20048;-64
2022/08/05 04:52:00;;;;;;;9.63;5.38;;;;;;;;;;4976615;28;20042;-64
2022/08/05 04:54:26;;;;;;;8.07;5.00;;;;;;;;;;4994523;28;20050;-64
2022/08/05 04:56:53;;;;;;;8.60;4.38;;;;;;;;;;4994667;28;20038;-64
2022/08/05 04:59:19;;;;;;;11.90;4.88;;;;;;;;;;4994183;28;20130;-64
2022/08/05 05:01:46;;;;;;;8.70;4.22;;;;;;;;;;4976985;28;20125;-64
2022/08/05 05:04:12;;;;;;;9.55;5.10;;;;;;;;;;4994430;28;20089;-64
2022/08/05 05:06:38;;;;;;;8.90;4.55;;;;;;;;;;4993928;28;20050;-64
2022/08/05 05:09:04;;;;;;;10.68;4.75;;;;;;;;;;4994153;28;20448;-64
2022/08/05 05:11:30;;;;;;;7.88;4.55;;;;;;;;;;4994432;28;20057;-64
2022/08/05 05:13:56;;;;;;;8.57;4.15;;;;;;;;;;4994001;28;20050;-64
2022/08/05 05:16:22;;;;;;;9.35;4.28;;;;;;;;;;4994289;28;20080;-64
2022/08/05 05:18:48;;;;;;;9.50;4.68;;;;;;;;;;4994116;28;20080;-64
2022/08/05 05:21:14;;;;;;;7.95;4.47;;;;;;;;;;4993702;28;20042;-64
2022/08/05 05:23:40;;;;;;;10.05;5.03;;;;;;;;;;4976536;28;20045;-64
2022/08/05 05:26:06;;;;;;;8.23;4.72;;;;;;;;;;4994038;28;20050;-64
2022/08/05 05:28:32;;;;;;;8.27;4.72;;;;;;;;;;4993687;28;20402;-64
2022/08/05 05:30:58;;;;;;;7.40;4.60;;;;;;;;;;4993750;28;20053;-64
2022/08/05 05:33:25;;;;;;;8.18;4.15;;;;;;;;;;4993660;28;20042;-64
2022/08/05 05:35:51;;;;;;;13.07;4.95;;;;;;;;;;4993186;28;20042;-64
2022/08/05 05:38:17;;;;;;;7.93;4.68;;;;;;;;;;4976064;28;20034;-64
2022/08/05 05:40:43;;;;;;;7.50;4.57;;;;;;;;;;4993758;28;20077;-64
2022/08/05 05:43:09;;;;;;;9.23;4.90;;;;;;;;;;4993074;28;20599;-64
2022/08/05 05:45:35;;;;;;;7.93;4.50;;;;;;;;;;4993703;28;20048;-64
2022/08/05 05:48:06;;;;;;;9.52;4.60;;;;;;;;;;4993063;28;20117;-64
2022/08/05 05:50:32;;;;;;;9.18;4.82;;;;;;;;;;4993179;28;20042;-62
2022/08/05 05:52:58;;;;;;;9.27;5.07;;;;;;;;;;5000064;28;20094;-62
2022/08/05 05:55:24;;;;;;;7.18;4.53;;;;;;;;;;5005234;28;20046;-62
2022/08/05 05:57:50;;;;;;;6.60;4.40;;;;;;;;;;5012466;28;20041;-62
2022/08/05 06:00:18;;;;;;;8.70;4.32;;;;;;;;;;4993347;28;20034;-63
2022/08/05 06:02:45;;;;;;;9.68;4.60;;;;;;;;;;4993077;28;20078;-63
2022/08/05 06:05:13;;;;;;;9.05;5.00;;;;;;;;;;4992312;28;20050;-62
2022/08/05 06:07:40;;;;;;;6.75;4.68;;;;;;;;;;4992795;28;20042;-62
2022/08/05 06:10:06;;;;;;;7.88;4.28;;;;;;;;;;4992817;28;20513;-62
2022/08/05 06:12:33;;;;;;;8.15;4.40;;;;;;;;;;4992714;28;20485;-62
2022/08/05 06:15:00;;;;;;;10.15;4.80;;;;;;;;;;4992498;28;20081;-62
2022/08/05 06:17:26;;;;;;;8.43;4.38;;;;;;;;;;4991115;28;20101;-63
2022/08/05 06:19:52;;;;;;;6.07;4.13;;;;;;;;;;4991538;28;20201;-62
2022/08/05 06:22:22;;;;;;;5.53;3.55;;;;;;;;;;5010232;28;20053;-63
2022/08/05 06:24:48;;;;;;;7.70;3.50;;;;;;;;;;4974699;28;20128;-64
2022/08/05 06:27:14;;;;;;;3.88;3.00;;;;;;;;;;4991367;28;20552;-63
2022/08/05 06:29:40;;;;;;;7.03;3.05;;;;;;;;;;4992437;28;20035;-63
2022/08/05 06:32:06;;;;;;;8.57;3.63;;;;;;;;;;4974456;28;20053;-62
2022/08/05 06:34:32;;;;;;;6.65;3.20;;;;;;;;;;4991445;28;20050;-61
2022/08/05 06:36:58;;;;;;;4.75;2.92;;;;;;;;;;4992224;28;20527;-61
2022/08/05 06:39:25;;;;;;;8.10;3.25;;;;;;;;;;4992275;28;20057;-62
2022/08/05 06:41:51;;;;;;;5.60;2.97;;;;;;;;;;4991676;28;20141;-60
2022/08/05 06:44:17;;;;;;;8.70;4.25;;;;;;;;;;4991144;28;20050;-60
2022/08/05 06:46:43;;;;;;;5.05;2.47;;;;;;;;;;4991927;28;20420;-61
2022/08/05 06:49:09;;;;;;;5.45;2.80;;;;;;;;;;4991240;28;20090;-61
2022/08/05 06:51:35;;;;;;;4.50;2.40;;;;;;;;;;4991947;28;20054;-61
2022/08/05 06:54:03;;;;;;;4.55;2.00;;;;;;;;;;4991924;28;20046;-61
2022/08/05 06:56:29;;;;;;;3.45;1.80;;;;;;;;;;4991263;28;20038;-61
2022/08/05 06:58:55;;;;;;;2.15;1.88;;;;;;;;;;4991978;28;20053;-61
2022/08/05 07:01:22;;;;;;;2.15;1.50;;;;;;;;;;4991511;28;20095;-61
2022/08/05 07:03:48;;;;;;;6.78;1.98;;;;;;;;;;4991006;28;20046;-62
2022/08/05 07:06:14;;;;;;;1.65;1.33;;;;;;;;;;4991106;28;20042;-61
2022/08/05 07:08:41;;;;;;;4.75;1.88;;;;;;;;;;4991455;28;20038;-62
2022/08/05 07:11:07;;;;;;;6.40;1.75;;;;;;;;;;4991357;28;20102;-63
2022/08/05 07:19:04;;;;;;;3.90;1.40;;;;;;;;;;4991066;28;20454;-62
2022/08/05 07:21:30;;;;;;;2.97;1.27;;;;;;;;;;4991355;28;20046;-62
2022/08/05 07:23:56;;;;;;;4.95;1.30;;;;;;;;;;4992012;28;20101;-62
2022/08/05 07:26:22;;;;;;;4.85;1.85;;;;;;;;;;4990878;28;20046;-62
2022/08/05 07:28:52;;;;;;;2.38;1.30;;;;;;;;;;4991650;28;20049;-61
2022/08/05 07:31:18;;;;;;;2.47;1.30;;;;;;;;;;4991235;28;20081;-61
2022/08/05 07:33:44;;;;;;;6.20;1.40;;;;;;;;;;4990841;28;20452;-63
2022/08/05 07:36:10;;;;;;;2.35;1.17;;;;;;;;;;4991112;28;20138;-62
2022/08/05 07:38:37;;;;;;;3.35;1.00;;;;;;;;;;4991220;28;20049;-62
2022/08/05 07:41:04;;;;;;;6.95;1.40;;;;;;;;;;4990765;28;20046;-61
2022/08/05 07:43:30;;;;;;;3.15;0.98;;;;;;;;;;4990509;28;20125;-61
2022/08/05 07:45:56;;;;;;;2.10;0.93;;;;;;;;;;4991160;28;20053;-59
2022/08/05 07:48:22;;;;;;;3.63;1.20;;;;;;;;;;4990236;28;20770;-61
2022/08/05 07:50:48;;;;;;;1.70;1.20;;;;;;;;;;4991173;28;20062;-64
2022/08/05 07:53:14;;;;;;;2.33;1.00;;;;;;;;;;4991833;28;20046;-64
2022/08/05 07:55:40;;;;;;;3.20;1.17;;;;;;;;;;4986131;28;20046;-63
2022/08/05 07:58:06;;;;;;;3.30;1.13;;;;;;;;;;4984352;28;20038;-65
2022/08/05 08:00:32;;;;;;;3.05;1.27;;;;;;;;;;4991416;28;20389;-64
2022/08/05 08:02:58;;;;;;;3.28;1.70;;;;;;;;;;4991425;28;20077;-64
2022/08/05 08:05:25;;;;;;;5.10;1.35;;;;;;;;;;4998286;28;20494;-64
2022/08/05 08:07:51;;;;;;;3.90;1.10;;;;;;;;;;4982686;28;20441;-63
2022/08/05 08:10:17;;;;;;;2.97;1.27;;;;;;;;;;4995190;28;20042;-62
2022/08/05 08:12:43;;;;;;;2.97;1.25;;;;;;;;;;4992220;28;20129;-62
2022/08/05 08:15:10;;;;;;;2.88;1.20;;;;;;;;;;4988132;28;20185;-63
2022/08/05 08:17:36;;;;;;;3.88;1.00;;;;;;;;;;4990183;28;20385;-64
2022/08/05 08:20:04;;;;;;;2.88;0.95;;;;;;;;;;5001344;28;20042;-62
2022/08/05 08:22:31;;;;;;;2.72;1.00;;;;;;;;;;4990672;28;20078;-63
2022/08/05 08:24:57;;;;;;;4.35;1.70;;;;;;;;;;4993385;28;20054;-63
2022/08/05 08:27:23;;;;;;;5.38;1.20;;;;;;;;;;4990139;28;20054;-61
2022/08/05 08:29:49;;;;;;;6.45;1.50;;;;;;;;;;4987843;28;20086;-60
2022/08/05 08:32:15;;;;;;;2.58;1.10;;;;;;;;;;4994039;28;20038;-62
2022/08/05 08:34:41;;;;;;;5.30;1.30;;;;;;;;;;4991626;28;20050;-62
2022/08/05 08:37:07;;;;;;;3.30;1.30;;;;;;;;;;4994073;28;20041;-62
2022/08/05 08:39:34;;;;;;;4.40;1.15;;;;;;;;;;4990531;28;20488;-61
2022/08/05 08:42:01;;;;;;;2.53;0.73;;;;;;;;;;4997417;28;20487;-62
2022/08/05 08:44:31;;;;;;;2.50;0.70;;;;;;;;;;4989649;28;20137;-61
2022/08/05 08:46:57;;;;;;;3.45;0.50;;;;;;;;;;4989116;28;20168;-62
2022/08/05 08:49:23;;;;;;;1.60;0.90;;;;;;;;;;4988643;28;20709;-61
2022/08/05 08:51:58;;;;;;;4.53;1.08;;;;;;;;;;4989328;28;20041;-61
2022/08/05 08:54:25;;;;;;;3.28;1.27;;;;;;;;;;4987407;28;20038;-61
2022/08/05 08:56:51;;;;;;;1.75;0.93;;;;;;;;;;4992990;28;20042;-63
2022/08/05 08:59:18;;;;;;;4.45;0.90;;;;;;;;;;4985668;28;20046;-62
2022/08/05 09:01:44;;;;;;;2.13;0.75;;;;;;;;;;4994231;28;20399;-63
2022/08/05 09:04:10;;;;;;;2.75;0.63;;;;;;;;;;4987259;28;20081;-62
2022/08/05 09:06:36;;;;;;;2.58;0.68;;;;;;;;;;4987894;28;20097;-62
2022/08/05 09:09:02;;;;;;;4.32;0.90;;;;;;;;;;4992374;28;20401;-62
2022/08/05 09:11:29;;;;;;;1.48;0.60;;;;;;;;;;4992523;28;20038;-64
2022/08/05 09:13:55;;;;;;;3.42;0.70;;;;;;;;;;4990997;28;20118;-63
2022/08/05 09:16:22;;;;;;;1.25;0.60;;;;;;;;;;4987389;28;20042;-63
2022/08/05 09:18:48;;;;;;;1.85;0.65;;;;;;;;;;4990191;28;20037;-63
2022/08/05 09:21:14;;;;;;;2.28;0.75;;;;;;;;;;4990471;28;20084;-62
2022/08/05 09:23:40;;;;;;;2.67;0.60;;;;;;;;;;4996360;28;20049;-62
2022/08/05 09:26:11;;;;;;;3.38;0.70;;;;;;;;;;4992528;28;20046;-61
2022/08/05 09:28:39;;;;;;;1.50;0.50;;;;;;;;;;4992618;28;20057;-62
2022/08/05 09:31:05;;;;;;;1.33;0.57;;;;;;;;;;4991823;28;20038;-62
2022/08/05 09:33:31;;;;;;;2.20;0.73;;;;;;;;;;4989731;28;20140;-63
2022/08/05 09:35:57;;;;;;;6.80;1.65;;;;;;;;;;4993358;28;20042;-65
2022/08/05 09:38:23;;;;;;;2.88;0.50;;;;;;;;;;4987749;28;20117;-63
2022/08/05 09:40:50;;;;;;;2.17;0.50;;;;;;;;;;4989543;28;20038;-65
2022/08/05 09:43:27;;;;;;;1.02;0.40;;;;;;;;;;4988884;28;20077;-63
2022/08/05 09:45:53;;;;;;;2.92;0.52;;;;;;;;;;5001063;28;20041;-62
2022/08/05 09:48:29;;;;;;;2.00;0.50;;;;;;;;;;4991300;28;20054;-64
2022/08/05 09:50:59;;;;;;;1.58;0.50;;;;;;;;;;4992682;28;20127;-63
2022/08/05 09:53:25;;;;;;;1.85;0.50;;;;;;;;;;4987989;28;20448;-63
2022/08/05 09:55:53;;;;;;;4.40;0.60;;;;;;;;;;4995605;28;20034;-64
2022/08/05 09:58:19;;;;;;;0.65;0.55;;;;;;;;;;4991266;28;20038;-63
2022/08/05 10:01:00;;;;;;;1.45;0.45;;;;;;;;;;4965058;28;20097;-62
2022/08/05 10:03:26;;;;;;;4.38;0.70;;;;;;;;;;4986490;28;20042;-62
2022/08/05 10:06:08;;;;;;;4.18;0.60;;;;;;;;;;4992560;28;20042;-62
2022/08/05 10:08:38;;;;;;;3.90;0.68;;;;;;;;;;4974225;28;20053;-62
2022/08/05 10:11:14;;;;;;;2.30;0.50;;;;;;;;;;4985649;28;20042;-62
2022/08/05 10:13:41;;;;;;;2.13;0.50;;;;;;;;;;4974543;28;20069;-62
2022/08/05 10:16:26;;;;;;;1.20;0.40;;;;;;;;;;4990032;28;20046;-62
2022/08/05 10:18:53;;;;;;;1.60;0.50;;;;;;;;;;4994631;28;20034;-63
2022/08/05 10:21:19;;;;;;;0.77;0.40;;;;;;;;;;4992290;28;20092;-61
2022/08/05 10:23:46;;;;;;;3.75;0.63;;;;;;;;;;4994036;28;20053;-61
2022/08/05 10:26:13;;;;;;;3.53;0.70;;;;;;;;;;4975865;28;20046;-59
2022/08/05 10:28:40;;;;;;;3.85;0.50;;;;;;;;;;4986932;28;20077;-61
2022/08/05 10:31:06;;;;;;;3.35;0.50;;;;;;;;;;4965763;28;20046;-61
2022/08/05 10:33:34;;;;;;;1.02;0.68;;;;;;;;;;4991994;28;20466;-61
2022/08/05 10:36:03;;;;;;;2.53;0.50;;;;;;;;;;4973641;28;20050;-61
2022/08/05 10:38:30;;;;;;;2.97;0.50;;;;;;;;;;4996368;28;20045;-61
2022/08/05 10:41:00;;;;;;;1.38;0.40;;;;;;;;;;4994954;28;20038;-61
2022/08/05 10:43:45;;;;;;;2.30;0.22;;;;;;;;;;4999398;28;20073;-61
2022/08/05 10:46:13;;;;;;;5.03;0.30;;;;;;;;;;4993419;28;20046;-61
2022/08/05 10:48:46;;;;;;;1.77;0.45;;;;;;;;;;4996809;28;20436;-61
2022/08/05 10:51:19;;;;;;;1.65;0.30;;;;;;;;;;4990323;28;20056;-61
2022/08/05 10:53:58;;;;;;;0.70;0.20;;;;;;;;;;4990946;28;20096;-61
2022/08/05 10:56:24;;;;;;;2.30;0.40;;;;;;;;;;4991608;28;20509;-61
2022/08/05 10:58:50;;;;;;;1.25;0.30;;;;;;;;;;4998604;28;20077;-61
2022/08/05 11:01:17;;;;;;;1.05;0.30;;;;;;;;;;4991894;28;20084;-61
2022/08/05 11:04:01;;;;;;;0.43;0.30;;;;;;;;;;4991808;28;20474;-61
2022/08/05 11:06:27;;;;;;;1.45;0.20;;;;;;;;;;4991551;28;20034;-62
2022/08/05 11:09:12;;;;;;;1.58;0.30;;;;;;;;;;4991393;28;20073;-61
2022/08/05 11:11:38;;;;;;;1.77;0.32;;;;;;;;;;4991861;28;20442;-60
2022/08/05 11:14:04;;;;;;;3.92;0.60;;;;;;;;;;4991367;28;20101;-62
2022/08/05 11:16:31;;;;;;;1.30;0.30;;;;;;;;;;4990775;28;20046;-62
2022/08/05 11:19:15;;;;;;;1.42;0.40;;;;;;;;;;4991449;28;20045;-60
2022/08/05 11:21:41;;;;;;;2.50;0.20;;;;;;;;;;4972465;28;20191;-63
2022/08/05 11:24:07;;;;;;;2.20;0.30;;;;;;;;;;4980627;28;20050;-63
2022/08/05 11:26:34;;;;;;;0.60;0.20;;;;;;;;;;4991480;28;20073;-63
2022/08/05 11:29:04;;;;;;;0.57;0.20;;;;;;;;;;4982226;28;21326;-62
2022/08/05 11:31:31;;;;;;;0.45;0.20;;;;;;;;;;4986199;28;20042;-64
2022/08/05 11:33:58;;;;;;;2.22;0.68;;;;;;;;;;4967016;28;20066;-64
2022/08/05 11:36:40;;;;;;;3.33;0.38;;;;;;;;;;4989353;28;20122;-62
2022/08/05 11:39:07;;;;;;;2.20;0.50;;;;;;;;;;4985837;28;20034;-63
2022/08/05 11:41:36;;;;;;;5.38;0.30;;;;;;;;;;5010328;28;20041;-64
2022/08/05 11:44:05;;;;;;;1.90;0.40;;;;;;;;;;4998316;28;20042;-63
2022/08/05 11:46:37;;;;;;;2.35;0.30;;;;;;;;;;4989662;28;20042;-62
2022/08/05 11:49:03;;;;;;;;;;;;;;;;;;4971916;28;20062;-64
2022/08/05 11:51:29;;;;;;;1.33;0.30;;;;;;;;;;4973072;28;20012;-65
2022/08/05 11:53:56;;;;;;;2.05;0.30;;;;;;;;;;4988654;28;20121;-62
2022/08/05 11:56:22;;;;;;;4.85;0.30;;;;;;;;;;4990451;28;20129;-61
2022/08/05 11:58:49;;;;;;;1.05;0.20;;;;;;;;;;4990486;28;20179;-62
2022/08/05 12:01:16;;;;;;;3.85;0.50;;;;;;;;;;4989561;28;20042;-61
2022/08/05 12:03:42;;;;;;;1.50;0.40;;;;;;;;;;4992520;28;20042;-62
2022/08/05 12:06:08;;;;;;;1.27;0.30;;;;;;;;;;4990500;28;20042;-62
2022/08/05 12:08:39;;;;;;;0.20;0.20;;;;;;;;;;4996473;28;20050;-63
2022/08/05 12:11:07;;;;;;;3.00;0.50;;;;;;;;;;4990260;28;20449;-62
2022/08/05 12:13:33;;;;;;;0.57;0.30;;;;;;;;;;4989083;28;20061;-62
2022/08/05 12:15:59;;;;;;;1.15;0.20;;;;;;;;;;4994061;28;20041;-63
2022/08/05 12:18:32;;;;;;;2.47;0.38;;;;;;;;;;4998008;28;20571;-63
2022/08/05 12:21:11;;;;;;;1.38;0.40;;;;;;;;;;4989440;28;20038;-64
2022/08/05 12:23:38;;;;;;;0.52;0.15;;;;;;;;;;4972475;28;20105;-64
2022/08/05 12:26:04;;;;;;;2.13;0.50;;;;;;;;;;4990456;28;20408;-63
2022/08/05 12:28:31;;;;;;;5.68;0.43;;;;;;;;;;4989258;28;20608;-63
2022/08/05 12:30:57;;;;;;;0.80;0.28;;;;;;;;;;4990272;28;20047;-63
2022/08/05 12:33:24;;;;;;;1.08;0.25;;;;;;;;;;4986775;28;20045;-63
2022/08/05 12:35:50;;;;;;;0.98;0.35;;;;;;;;;;4987065;28;20080;-64
2022/08/05 12:38:16;;;;;;;1.75;0.20;;;;;;;;;;4987042;28;20042;-64
2022/08/05 12:40:42;;;;;;;0.70;0.20;;;;;;;;;;4985326;28;20039;-61
2022/08/05 12:43:08;;;;;;;1.23;0.32;;;;;;;;;;4992560;28;20717;-61
2022/08/05 12:45:34;;;;;;;3.95;0.30;;;;;;;;;;4993269;28;20069;-64
2022/08/05 12:48:13;;;;;;;0.52;0.30;;;;;;;;;;4993183;28;20066;-63
2022/08/05 12:50:39;;;;;;;2.60;0.30;;;;;;;;;;4990292;28;20066;-64
2022/08/05 12:53:05;;;;;;;2.97;0.38;;;;;;;;;;4999511;28;20500;-62
2022/08/05 12:55:31;;;;;;;1.23;0.30;;;;;;;;;;4994173;28;20042;-63
2022/08/05 12:57:57;;;;;;;1.30;0.40;;;;;;;;;;4995932;28;20385;-62
2022/08/05 13:00:24;;;;;;;1.50;0.20;;;;;;;;;;4988788;28;20046;-63
2022/08/05 13:02:52;;;;;;;1.90;0.38;;;;;;;;;;4998743;28;20046;-64
2022/08/05 13:05:18;;;;;;;2.38;0.32;;;;;;;;;;5008322;28;20041;-63
2022/08/05 13:07:45;;;;;;;1.35;0.20;;;;;;;;;;4998422;28;20038;-62
2022/08/05 13:10:13;;;;;;;3.40;0.32;;;;;;;;;;4992847;28;20046;-63
2022/08/05 13:12:43;;;;;;;0.55;0.25;;;;;;;;;;4998921;28;20424;-63
2022/08/05 13:15:09;;;;;;;2.00;0.25;;;;;;;;;;4989552;28;20034;-63
2022/08/05 13:17:36;;;;;;;5.90;0.50;;;;;;;;;;4993070;28;20042;-66
2022/08/05 13:20:10;;;;;;;1.17;0.55;;;;;;;;;;4994011;28;20084;-66
2022/08/05 13:22:37;;;;;;;1.65;0.30;;;;;;;;;;4992919;28;20049;-65
2022/08/05 13:25:04;;;;;;;0.82;0.30;;;;;;;;;;4993713;28;20409;-65
2022/08/05 13:27:32;;;;;;;0.93;0.20;;;;;;;;;;4993001;28;20084;-64
2022/08/05 13:29:59;;;;;;;0.82;0.30;;;;;;;;;;4993574;28;20041;-64
2022/08/05 13:32:26;;;;;;;0.95;0.30;;;;;;;;;;4993749;28;20088;-64
2022/08/05 13:34:52;;;;;;;1.45;0.32;;;;;;;;;;4993926;28;20051;-63
2022/08/05 13:37:20;;;;;;;0.60;0.22;;;;;;;;;;4993215;28;20045;-65
2022/08/05 13:39:46;;;;;;;1.17;0.30;;;;;;;;;;4993688;28;20576;-64
2022/08/05 13:42:12;;;;;;;3.75;0.50;;;;;;;;;;4993700;28;20050;-65
2022/08/05 13:44:38;;;;;;;2.85;0.32;;;;;;;;;;4993288;28;20070;-63
2022/08/05 13:47:04;;;;;;;1.13;0.40;;;;;;;;;;4993067;28;20498;-63
2022/08/05 13:49:30;;;;;;;2.25;0.30;;;;;;;;;;4993658;28;20492;-62
2022/08/05 13:51:57;;;;;;;0.60;0.22;;;;;;;;;;4993215;28;20046;-62
2022/08/05 13:54:25;;;;;;;2.00;0.40;;;;;;;;;;4993366;28;20042;-63
2022/08/05 13:56:51;;;;;;;2.20;0.50;;;;;;;;;;4993452;28;20043;-63
2022/08/05 13:59:19;;;;;;;1.85;0.20;;;;;;;;;;4992855;28;20120;-63
2022/08/05 14:01:45;;;;;;;1.15;0.35;;;;;;;;;;4993407;28;20045;-63
2022/08/05 14:06:56;;;;;;;0.60;0.25;;;;;;;;;;4992792;28;20457;-63
2022/08/05 14:09:22;;;;;;;0.75;0.20;;;;;;;;;;4992939;28;20133;-63
2022/08/05 14:11:48;;;;;;;1.23;0.30;;;;;;;;;;4993389;28;20084;-63
2022/08/05 14:14:15;;;;;;;1.00;0.40;;;;;;;;;;4992892;28;20434;-63
2022/08/05 14:16:41;;;;;;;2.28;0.30;;;;;;;;;;4993033;28;20046;-63
2022/08/05 14:19:07;;;;;;;0.75;0.28;;;;;;;;;;4992807;28;20038;-63
2022/08/05 14:21:33;;;;;;;1.20;0.20;;;;;;;;;;4974899;28;20427;-64
2022/08/05 14:23:59;;;;;;;3.63;0.35;;;;;;;;;;4992809;28;20366;-63
2022/08/05 14:26:25;;;;;;;1.48;0.22;;;;;;;;;;4992817;28;20104;-63
2022/08/05 14:28:51;;;;;;;2.17;0.30;;;;;;;;;;4992477;28;20042;-63
2022/08/05 14:31:17;;;;;;;0.90;0.35;;;;;;;;;;4992697;28;20060;-63
2022/08/05 14:33:43;;;;;;;6.75;0.60;;;;;;;;;;4992805;28;20047;-63
2022/08/05 14:36:09;;;;;;;2.05;0.30;;;;;;;;;;4992370;28;20472;-63
2022/08/05 14:38:35;;;;;;;1.55;0.30;;;;;;;;;;4992276;28;20084;-63
2022/08/05 14:41:02;;;;;;;2.88;0.60;;;;;;;;;;4992511;28;20042;-63
2022/08/05 14:43:28;;;;;;;3.08;0.38;;;;;;;;;;4992132;28;20393;-63
2022/08/05 14:45:54;;;;;;;5.32;0.50;;;;;;;;;;4992663;28;20038;-63
2022/08/05 14:48:20;;;;;;;6.05;0.60;;;;;;;;;;4991768;28;20055;-63
2022/08/05 14:50:47;;;;;;;3.55;0.50;;;;;;;;;;4991608;28;20066;-63
2022/08/05 14:53:13;;;;;;;2.75;0.57;;;;;;;;;;4992079;28;20113;-63